Time;durP1;ratioP1;P1;durP2;ratioP2;P2;SDS_P1;SDS_P2;PMS_P1;PMS_P2;Temp;Humidity;BMP_temperature;BMP_pressure;BME280_temperature;BME280_humidity;BME280_pressure;Samples;Min_cycle;Max_cycle;Signal;HPM_P1;HPM_P2
2022/12/18 00:00:05;;;;;;;22.63;18.23;;;24.10;37.20;;;-142.21;30.86;112049.66;5112151;28;20264;-76
2022/12/18 00:02:32;;;;;;;23.60;18.77;;;24.10;37.30;;;-142.21;30.82;112049.66;5112156;28;20234;-79
2022/12/18 00:05:02;;;;;;;22.30;18.33;;;24.00;37.80;;;-142.21;30.42;112049.66;5112106;28;20600;-78
2022/12/18 00:07:29;;;;;;;25.47;18.43;;;24.00;37.10;;;-142.21;30.58;112049.66;5115811;28;20208;-79
2022/12/18 00:09:56;;;;;;;20.47;16.73;;;24.10;37.20;;;-142.21;30.42;112049.66;5115760;28;20203;-77
2022/12/18 00:12:24;;;;;;;21.63;17.60;;;24.00;37.00;;;-142.21;30.58;112049.66;5115912;28;20286;-78
2022/12/18 00:14:52;;;;;;;22.70;17.47;;;24.10;37.20;;;-142.21;30.64;112049.66;5115578;28;20227;-77
2022/12/18 00:17:19;;;;;;;20.43;16.63;;;24.00;37.10;;;-142.21;30.67;112049.66;5113146;28;20192;-78
2022/12/18 00:19:50;;;;;;;18.60;16.27;;;24.00;37.10;;;-142.21;30.40;112049.66;5094422;28;20788;-79
2022/12/18 00:22:17;;;;;;;18.83;16.10;;;24.10;37.10;;;-142.21;30.62;112049.66;5095703;28;20317;-78
2022/12/18 00:24:44;;;;;;;22.63;16.67;;;24.00;37.00;;;-142.21;30.38;112049.66;5099748;28;20289;-79
2022/12/18 00:27:11;;;;;;;20.93;16.93;;;24.00;37.10;;;-142.21;30.40;112049.66;5116243;28;20298;-78
2022/12/18 00:29:41;;;;;;;20.33;16.80;;;24.00;37.10;;;-142.21;30.53;112049.66;5116185;28;20208;-78
2022/12/18 00:32:10;;;;;;;18.77;15.63;;;24.00;37.00;;;-142.21;30.40;112049.66;5115952;28;20208;-79
2022/12/18 00:34:37;;;;;;;19.03;15.20;;;24.00;37.10;;;-142.21;30.67;112049.66;5116291;28;20290;-78
2022/12/18 00:37:04;;;;;;;19.43;16.23;;;24.00;37.10;;;-142.21;30.62;112049.66;5115286;28;20196;-78
2022/12/18 00:39:32;;;;;;;19.70;16.03;;;24.00;37.00;;;-142.21;30.51;112049.66;5115601;28;20200;-79
2022/12/18 00:44:44;;;;;;;17.33;14.80;;;24.00;37.00;;;-142.21;30.45;112049.66;5116027;28;20188;-77
2022/12/18 00:47:12;;;;;;;16.60;14.80;;;24.00;37.00;;;-142.21;30.69;112049.66;5115540;28;20207;-79
2022/12/18 00:49:42;;;;;;;17.30;14.83;;;24.00;37.00;;;-142.21;30.53;112049.66;5127849;28;20199;-78
2022/12/18 00:52:09;;;;;;;18.03;14.67;;;24.00;37.10;;;-142.21;30.49;112049.66;5125249;28;20184;-78
2022/12/18 00:54:37;;;;;;;18.87;14.70;;;24.00;36.90;;;-142.21;30.36;112049.66;5115579;28;20196;-77
2022/12/18 00:57:04;;;;;;;18.47;15.53;;;24.00;37.00;;;-142.21;30.50;112049.66;5115262;28;20249;-78
2022/12/18 00:59:31;;;;;;;19.33;14.83;;;24.00;37.00;;;-142.21;30.36;112049.66;5115685;28;20662;-77
2022/12/18 01:01:59;;;;;;;17.07;15.00;;;24.00;37.00;;;-142.21;30.56;112049.66;5114789;28;20597;-77
2022/12/18 01:04:28;;;;;;;16.30;14.03;;;23.90;36.90;;;-142.21;30.53;112049.66;5115348;28;20241;-76
2022/12/18 01:06:55;;;;;;;16.87;15.07;;;23.90;36.80;;;-142.21;30.68;112049.66;5114748;28;20201;-78
2022/12/18 01:09:23;;;;;;;17.73;14.23;;;24.00;37.00;;;-142.21;30.24;112049.66;5115161;28;20214;-79
2022/12/18 01:11:50;;;;;;;17.57;14.77;;;23.90;36.80;;;-142.21;30.40;112049.66;5115125;28;20693;-77
2022/12/18 01:14:17;;;;;;;16.37;14.67;;;24.00;36.90;;;-142.21;30.44;112049.66;5115064;28;20237;-77
2022/12/18 01:16:44;;;;;;;16.30;14.07;;;24.00;36.90;;;-142.21;30.57;112049.66;5115023;28;20679;-78
2022/12/18 01:19:11;;;;;;;18.70;14.83;;;24.00;37.00;;;-142.21;30.57;112049.66;5114347;28;20279;-78
2022/12/18 01:21:40;;;;;;;17.10;14.37;;;24.00;36.90;;;-142.21;30.64;112049.66;5114880;28;20243;-78
2022/12/18 01:24:08;;;;;;;16.20;14.07;;;23.90;36.80;;;-142.21;30.38;112049.66;5114305;28;20253;-78
2022/12/18 01:26:35;;;;;;;16.73;13.67;;;24.00;36.90;;;-142.21;30.49;112049.66;5094804;28;20235;-77
2022/12/18 01:29:02;;;;;;;15.33;13.73;;;24.00;36.90;;;-142.21;30.40;112049.66;5100859;28;20299;-77
2022/12/18 01:31:32;;;;;;;16.47;13.67;;;24.00;36.90;;;-142.21;30.28;112049.66;5114684;28;20276;-78
2022/12/18 01:34:02;;;;;;;16.93;13.27;;;24.00;37.00;;;-142.21;30.22;112049.66;5114165;28;20261;-77
2022/12/18 01:36:33;;;;;;;16.13;13.57;;;24.00;37.50;;;-142.21;30.53;112049.66;5114602;28;20289;-77
2022/12/18 01:39:07;;;;;;;14.63;13.03;;;24.00;36.90;;;-142.21;30.51;112049.66;5114055;28;20644;-78
2022/12/18 01:45:03;;;;;;;16.80;13.00;;;24.00;36.90;;;-142.21;30.29;112049.66;5113382;28;20212;-77
2022/12/18 01:47:36;;;;;;;14.37;12.33;;;24.00;36.90;;;-142.21;30.16;112049.66;5114439;28;20187;-78
2022/12/18 01:50:09;;;;;;;13.33;11.73;;;24.00;36.90;;;-142.21;30.27;112049.66;5114330;28;20271;-77
2022/12/18 01:52:38;;;;;;;15.03;13.17;;;24.00;36.80;;;-142.21;30.49;112049.66;5114461;28;20290;-76
2022/12/18 01:55:10;;;;;;;16.03;13.47;;;24.00;36.80;;;-142.21;30.41;112049.66;5114066;28;20211;-76
2022/12/18 01:57:38;;;;;;;15.37;13.13;;;24.00;36.80;;;-142.21;30.45;112049.66;5114445;28;20588;-77
2022/12/18 02:00:14;;;;;;;13.60;12.20;;;24.00;36.80;;;-142.21;30.15;112049.66;5113823;28;20229;-77
2022/12/18 02:02:43;;;;;;;14.40;12.90;;;24.00;36.80;;;-142.21;30.37;112049.66;5114073;28;20628;-77
2022/12/18 02:05:14;;;;;;;13.97;12.43;;;24.00;36.80;;;-142.21;30.30;112049.66;5093015;28;20603;-77
2022/12/18 02:07:59;;;;;;;14.73;12.47;;;24.00;36.80;;;-142.21;30.18;112049.66;5093965;28;20239;-78
2022/12/18 02:10:37;;;;;;;13.60;11.93;;;24.00;36.80;;;-142.21;30.33;112049.66;5093432;28;20185;-76
2022/12/18 02:13:14;;;;;;;16.23;12.77;;;24.00;36.80;;;-142.21;30.38;112049.66;5092939;28;20219;-76
2022/12/18 02:15:52;;;;;;;14.87;12.60;;;24.00;36.80;;;-142.21;30.27;112049.66;5094587;28;20273;-76
2022/12/18 02:18:24;;;;;;;14.23;12.00;;;24.00;36.80;;;-142.21;30.49;112049.66;5094346;28;20525;-78
2022/12/18 02:21:00;;;;;;;13.67;12.23;;;24.00;36.80;;;-142.21;30.40;112049.66;5092465;28;20322;-77
2022/12/18 02:23:51;;;;;;;13.73;11.77;;;24.00;36.80;;;-142.21;30.15;112049.66;5093735;28;20556;-78
2022/12/18 02:26:29;;;;;;;12.43;10.60;;;24.00;36.80;;;-142.21;30.01;112049.66;5093525;28;20201;-78
2022/12/18 02:29:04;;;;;;;13.07;11.67;;;24.00;36.80;;;-142.21;30.09;112049.66;5092185;28;20649;-78
2022/12/18 02:31:40;;;;;;;13.47;11.97;;;24.00;36.80;;;-142.21;30.34;112049.66;5093006;28;20247;-75
2022/12/18 02:34:11;;;;;;;14.43;12.83;;;24.00;36.80;;;-142.21;30.03;112049.66;5093258;28;20292;-77
2022/12/18 02:36:43;;;;;;;12.70;11.17;;;24.00;37.00;;;-142.21;30.18;112049.66;5093337;28;20203;-76
2022/12/18 02:39:14;;;;;;;12.23;10.93;;;24.00;36.80;;;-142.21;30.24;112049.66;5092813;28;20188;-76
2022/12/18 02:41:43;;;;;;;12.70;11.00;;;24.00;36.70;;;-142.21;30.17;112049.66;5093151;28;20208;-76
2022/12/18 02:44:14;;;;;;;13.23;10.93;;;24.00;36.70;;;-142.21;30.23;112049.66;5092830;28;20711;-77
2022/12/18 02:46:46;;;;;;;12.10;10.87;;;24.10;36.80;;;-142.21;30.27;112049.66;5092857;28;20280;-77
2022/12/18 02:49:32;;;;;;;14.53;12.03;;;24.10;36.80;;;-142.21;30.38;112049.66;5092532;28;20211;-76
2022/12/18 02:52:13;;;;;;;12.73;11.17;;;24.00;36.80;;;-142.21;30.15;112049.66;5092358;28;20220;-78
2022/12/18 02:55:01;;;;;;;12.67;11.37;;;24.00;36.80;;;-142.21;30.50;112049.66;5041381;28;20249;-76
2022/12/18 02:57:40;;;;;;;12.00;10.70;;;24.00;36.80;;;-142.21;30.21;112049.66;5092734;28;20184;-77
2022/12/18 03:00:15;;;;;;;12.20;10.90;;;24.00;36.80;;;-142.21;30.29;112049.66;5092246;28;20272;-77
2022/12/18 03:02:50;;;;;;;12.83;10.83;;;24.00;36.70;;;-142.21;30.10;112049.66;5092760;28;20243;-78
2022/12/18 03:05:23;;;;;;;12.70;10.90;;;24.00;36.70;;;-142.21;30.32;112049.66;5092000;28;20266;-77
2022/12/18 03:07:58;;;;;;;11.37;10.17;;;24.00;36.70;;;-142.21;30.20;112049.66;5092683;28;20223;-77
2022/12/18 03:10:30;;;;;;;11.73;10.53;;;24.00;36.70;;;-142.21;30.42;112049.66;5093008;28;20278;-77
2022/12/18 03:13:05;;;;;;;12.57;11.27;;;24.10;37.40;;;-142.21;30.15;112049.66;5092471;28;20283;-78
2022/12/18 03:15:38;;;;;;;11.77;10.40;;;24.00;36.70;;;-142.21;30.32;112049.66;5092645;28;20608;-78
2022/12/18 03:18:13;;;;;;;12.87;11.30;;;24.10;36.80;;;-142.21;30.19;112049.66;5091675;28;20275;-78
2022/12/18 03:20:45;;;;;;;11.77;10.57;;;24.00;36.70;;;-142.21;30.45;112049.66;5098668;28;20227;-78
2022/12/18 03:23:18;;;;;;;12.50;11.13;;;24.00;36.70;;;-142.21;30.36;112049.66;5112482;28;20618;-78
2022/12/18 03:25:48;;;;;;;11.43;10.23;;;24.00;36.70;;;-142.21;30.21;112049.66;5099630;28;20196;-78
2022/12/18 03:28:22;;;;;;;12.00;10.77;;;24.00;36.60;;;-142.21;30.51;112049.66;5104535;28;20593;-76
2022/12/18 03:30:58;;;;;;;12.97;10.73;;;24.00;36.70;;;-142.21;30.27;112049.66;5111880;28;20747;-78
2022/12/18 03:33:32;;;;;;;11.07;9.97;;;24.00;36.60;;;-142.21;30.27;112049.66;5112765;28;20274;-76
2022/12/18 03:36:00;;;;;;;11.43;10.20;;;24.00;36.60;;;-142.21;30.13;112049.66;5112486;28;20187;-77
2022/12/18 03:38:27;;;;;;;11.17;10.07;;;24.00;36.60;;;-142.21;30.18;112049.66;5113137;28;20254;-76
2022/12/18 03:41:20;;;;;;;12.20;10.53;;;24.00;36.50;;;-142.21;30.32;112049.66;5113236;28;20603;-77
2022/12/18 03:44:03;;;;;;;11.00;9.80;;;24.10;36.60;;;-142.21;30.22;112049.66;5099509;28;20188;-78
2022/12/18 03:46:40;;;;;;;12.73;10.67;;;24.10;36.70;;;-142.21;30.32;112049.66;5116355;28;20600;-76
2022/12/18 03:49:15;;;;;;;11.50;10.30;;;24.00;36.60;;;-142.21;30.29;112049.66;5097207;28;20356;-77
2022/12/18 03:51:52;;;;;;;10.80;9.70;;;24.00;36.60;;;-142.21;30.06;112049.66;5096376;28;20270;-77
2022/12/18 03:54:21;;;;;;;11.37;9.93;;;24.00;36.60;;;-142.21;30.40;112049.66;5095653;28;20219;-78
2022/12/18 03:56:55;;;;;;;10.53;9.43;;;24.00;36.60;;;-142.21;30.27;112049.66;5096308;28;20202;-78
2022/12/18 03:59:27;;;;;;;10.80;9.73;;;24.00;36.60;;;-142.21;30.18;112049.66;5096699;28;20377;-78
2022/12/18 04:01:59;;;;;;;11.40;10.20;;;24.10;36.60;;;-142.21;30.13;112049.66;5096120;28;20586;-79
2022/12/18 04:04:29;;;;;;;10.90;9.80;;;24.00;36.60;;;-142.21;30.13;112049.66;5096534;28;20200;-79
2022/12/18 04:06:58;;;;;;;10.53;9.43;;;24.00;36.60;;;-142.21;30.15;112049.66;5095608;28;20644;-78
2022/12/18 04:09:27;;;;;;;10.57;9.47;;;24.00;36.60;;;-142.21;30.07;112049.66;5096081;28;20223;-78
2022/12/18 04:11:54;;;;;;;11.90;10.40;;;24.00;36.50;;;-142.21;29.99;112049.66;5096346;28;20292;-79
2022/12/18 04:14:21;;;;;;;10.67;9.57;;;24.00;36.50;;;-142.21;30.09;112049.66;5097728;28;20246;-78
2022/12/18 04:16:50;;;;;;;10.97;9.67;;;24.10;36.60;;;-142.21;29.87;112049.66;5115422;28;20207;-78
2022/12/18 04:19:17;;;;;;;10.97;9.87;;;24.10;36.60;;;-142.21;29.90;112049.66;5105753;28;20246;-77
2022/12/18 04:21:44;;;;;;;11.27;9.80;;;24.10;36.60;;;-142.21;30.11;112049.66;5095925;28;20314;-77
2022/12/18 04:24:12;;;;;;;11.77;10.57;;;24.10;36.50;;;-142.21;30.02;112049.66;5095663;28;20192;-77
2022/12/18 04:26:39;;;;;;;12.40;10.53;;;24.10;36.50;;;-142.21;30.08;112049.66;5116323;28;20210;-77
2022/12/18 04:29:06;;;;;;;13.33;9.87;;;24.00;36.50;;;-142.21;29.95;112049.66;5115809;28;20712;-76
2022/12/18 04:31:33;;;;;;;10.60;9.60;;;24.00;36.40;;;-142.21;30.10;112049.66;5116297;28;20251;-76
2022/12/18 04:34:02;;;;;;;10.27;9.23;;;24.00;36.40;;;-142.21;29.91;112049.66;5115657;28;20224;-78
2022/12/18 04:36:30;;;;;;;10.43;9.33;;;24.00;36.50;;;-142.21;29.99;112049.66;5116231;28;20295;-76
2022/12/18 04:38:57;;;;;;;11.13;10.00;;;24.00;36.40;;;-142.21;29.95;112049.66;5115978;28;20195;-77
2022/12/18 04:41:24;;;;;;;10.53;9.30;;;24.00;36.40;;;-142.21;30.22;112049.66;5115868;28;20199;-76
2022/12/18 04:43:51;;;;;;;11.17;10.00;;;24.00;36.40;;;-142.21;30.02;112049.66;5115931;28;20211;-77
2022/12/18 04:46:19;;;;;;;10.57;9.50;;;24.00;36.40;;;-142.21;29.98;112049.66;5115479;28;20231;-76
2022/12/18 04:48:47;;;;;;;10.83;9.40;;;24.00;36.50;;;-142.21;30.11;112049.66;5115648;28;20287;-77
2022/12/18 04:51:16;;;;;;;10.27;9.23;;;24.00;36.50;;;-142.21;30.17;112049.66;5100967;28;20205;-76
2022/12/18 04:53:43;;;;;;;10.80;9.60;;;24.00;36.40;;;-142.21;30.10;112049.66;5094863;28;20254;-77
2022/12/18 04:56:14;;;;;;;10.60;9.23;;;24.00;36.40;;;-142.21;30.21;112049.66;5094360;28;20239;-76
2022/12/18 04:58:43;;;;;;;12.00;9.00;;;24.00;36.40;;;-142.21;30.05;112049.66;5108106;28;20188;-75
2022/12/18 05:01:12;;;;;;;10.33;9.23;;;24.00;36.40;;;-142.21;30.23;112049.66;5114825;28;20682;-76
2022/12/18 05:03:40;;;;;;;10.67;9.57;;;23.90;36.40;;;-142.21;29.81;112049.66;5115055;28;20302;-77
2022/12/18 05:06:08;;;;;;;11.17;9.20;;;23.90;36.30;;;-142.21;30.00;112049.66;5114929;28;20250;-76
2022/12/18 05:08:37;;;;;;;9.80;8.80;;;24.00;36.40;;;-142.21;30.09;112049.66;5097172;28;20706;-77
2022/12/18 05:11:07;;;;;;;11.00;9.73;;;23.90;36.20;;;-142.21;29.90;112049.66;5114653;28;20237;-77
2022/12/18 05:13:36;;;;;;;10.40;9.20;;;23.90;36.30;;;-142.21;29.90;112049.66;5115005;28;20198;-76
2022/12/18 05:16:04;;;;;;;9.40;8.50;;;23.90;36.30;;;-142.21;29.88;112049.66;5096719;28;20671;-78
2022/12/18 05:18:32;;;;;;;9.77;8.77;;;24.00;36.30;;;-142.21;29.95;112049.66;5115216;28;20206;-76
2022/12/18 05:20:59;;;;;;;10.30;9.27;;;24.00;36.20;;;-142.21;29.67;112049.66;5114776;28;20318;-77
2022/12/18 05:23:27;;;;;;;10.57;9.57;;;24.00;36.20;;;-142.21;29.88;112049.66;5115435;28;20314;-76
2022/12/18 05:25:59;;;;;;;10.40;9.30;;;24.00;36.20;;;-142.21;29.88;112049.66;5100147;28;20665;-77
2022/12/18 05:28:30;;;;;;;10.17;8.67;;;24.00;36.20;;;-142.21;30.08;112049.66;5094375;28;20276;-76
2022/12/18 05:31:00;;;;;;;9.97;8.97;;;24.00;36.20;;;-142.21;29.93;112049.66;5094345;28;20216;-79
2022/12/18 05:33:31;;;;;;;10.27;9.20;;;24.00;36.30;;;-142.21;29.71;112049.66;5095779;28;20193;-78
2022/12/18 05:36:01;;;;;;;9.47;8.53;;;23.90;36.10;;;-142.21;29.67;112049.66;5094304;28;20317;-76
2022/12/18 05:38:30;;;;;;;10.07;9.07;;;24.00;36.20;;;-142.21;29.53;112049.66;5094271;28;20284;-76
2022/12/18 05:40:59;;;;;;;9.43;8.33;;;24.00;36.20;;;-142.21;29.47;112049.66;5094182;28;20718;-76
2022/12/18 05:43:27;;;;;;;9.93;8.93;;;24.00;36.10;;;-142.21;29.73;112049.66;5093838;28;20310;-76
2022/12/18 05:45:56;;;;;;;10.10;8.77;;;24.00;36.10;;;-142.21;29.68;112049.66;5094165;28;20235;-78
2022/12/18 05:48:24;;;;;;;10.33;9.27;;;24.00;36.10;;;-142.21;29.86;112049.66;5093560;28;20234;-76
2022/12/18 05:50:52;;;;;;;9.77;8.77;;;24.00;36.10;;;-142.21;29.79;112049.66;5094361;28;20247;-77
2022/12/18 05:53:21;;;;;;;9.83;8.83;;;24.00;35.90;;;-142.21;29.78;112049.66;5093417;28;20205;-76
2022/12/18 05:55:49;;;;;;;10.23;9.20;;;24.00;36.10;;;-142.21;29.83;112049.66;5094002;28;20283;-76
2022/12/18 05:58:17;;;;;;;10.23;9.13;;;24.00;36.00;;;-142.21;29.70;112049.66;5093864;28;20306;-76
2022/12/18 06:00:47;;;;;;;9.40;8.43;;;24.00;36.00;;;-142.21;29.77;112049.66;5093732;28;20288;-78
2022/12/18 06:03:14;;;;;;;9.47;8.57;;;24.00;36.10;;;-142.21;29.69;112049.66;5092699;28;20269;-77
2022/12/18 06:05:44;;;;;;;9.33;8.43;;;24.00;36.10;;;-142.21;29.69;112049.66;5093530;28;20291;-77
2022/12/18 06:08:12;;;;;;;10.63;9.63;;;24.00;36.10;;;-142.21;29.61;112049.66;5093892;28;20235;-78
2022/12/18 06:10:40;;;;;;;10.37;9.20;;;24.00;36.10;;;-142.21;29.50;112049.66;5093578;28;20247;-77
2022/12/18 06:13:09;;;;;;;10.10;9.10;;;24.00;36.00;;;-142.21;29.76;112049.66;5093568;28;20211;-77
2022/12/18 06:15:39;;;;;;;9.70;8.70;;;24.00;36.10;;;-142.21;29.63;112049.66;5093670;28;20208;-78
2022/12/18 06:18:06;;;;;;;10.37;9.30;;;24.10;36.00;;;-142.21;29.67;112049.66;5093192;28;20212;-78
2022/12/18 06:20:36;;;;;;;9.67;8.77;;;24.00;35.90;;;-142.21;29.66;112049.66;5093112;28;20230;-79
2022/12/18 06:23:04;;;;;;;9.63;8.53;;;24.00;35.90;;;-142.21;29.53;112049.66;5093269;28;20220;-80
2022/12/18 06:25:31;;;;;;;9.80;8.57;;;24.00;36.00;;;-142.21;29.59;112049.66;5104240;28;20285;-79
2022/12/18 06:27:59;;;;;;;9.87;8.90;;;24.00;35.80;;;-142.21;29.40;112049.66;5113870;28;20204;-78
2022/12/18 06:30:26;;;;;;;9.20;8.30;;;24.00;35.90;;;-142.21;29.55;112049.66;5113030;28;20294;-78
2022/12/18 06:32:56;;;;;;;9.40;8.43;;;24.00;35.90;;;-142.21;29.62;112049.66;5113418;28;20267;-78
2022/12/18 06:35:24;;;;;;;9.33;8.43;;;24.00;35.90;;;-142.21;29.32;112049.66;5113101;28;20283;-78
2022/12/18 06:37:51;;;;;;;10.00;8.90;;;24.00;35.90;;;-142.21;29.66;112049.66;5113669;28;20231;-79
2022/12/18 06:40:19;;;;;;;9.97;8.87;;;24.00;35.90;;;-142.21;29.54;112049.66;5112552;28;20218;-80
2022/12/18 06:42:46;;;;;;;9.17;8.27;;;24.00;35.90;;;-142.21;29.41;112049.66;5113440;28;20244;-79
2022/12/18 06:45:13;;;;;;;9.70;8.70;;;24.00;35.90;;;-142.21;29.39;112049.66;5092699;28;20196;-78
2022/12/18 06:47:40;;;;;;;9.27;8.37;;;24.00;35.80;;;-142.21;29.37;112049.66;5092911;28;20341;-78
2022/12/18 06:50:10;;;;;;;9.70;8.70;;;24.00;35.80;;;-142.21;29.53;112049.66;5092657;28;20594;-79
2022/12/18 06:52:38;;;;;;;9.00;8.03;;;24.00;35.80;;;-142.21;29.61;112049.66;5092946;28;20648;-77
2022/12/18 06:55:09;;;;;;;10.03;9.03;;;24.00;35.80;;;-142.21;29.33;112049.66;5092133;28;20664;-78
2022/12/18 06:57:40;;;;;;;9.43;8.43;;;24.00;35.90;;;-142.21;29.41;112049.66;5093005;28;20204;-78
2022/12/18 07:00:09;;;;;;;8.93;8.03;;;24.00;35.80;;;-142.21;29.67;112049.66;5092323;28;20201;-80
2022/12/18 07:02:36;;;;;;;9.10;8.20;;;24.00;36.50;;;-142.21;29.50;112049.66;5092469;28;20760;-80
2022/12/18 07:05:04;;;;;;;9.47;8.13;;;24.00;35.90;;;-142.21;29.15;112049.66;5092607;28;20200;-77
2022/12/18 07:07:34;;;;;;;9.63;8.63;;;23.90;35.90;;;-142.21;29.64;112049.66;5092758;28;20291;-78
2022/12/18 07:10:02;;;;;;;10.03;9.03;;;24.00;35.90;;;-142.21;29.49;112049.66;5092590;28;20223;-79
2022/12/18 07:12:29;;;;;;;9.07;8.17;;;24.00;35.80;;;-142.21;29.61;112049.66;5092178;28;20232;-77
2022/12/18 07:14:56;;;;;;;9.93;8.93;;;24.00;35.80;;;-142.21;29.66;112049.66;5092468;28;20667;-79
2022/12/18 07:17:23;;;;;;;8.90;8.00;;;24.00;35.80;;;-142.21;29.72;112049.66;5092061;28;20282;-79
2022/12/18 07:19:51;;;;;;;9.40;8.50;;;24.00;35.80;;;-142.21;29.31;112049.66;5092440;28;20278;-78
2022/12/18 07:22:18;;;;;;;8.73;7.93;;;24.00;35.80;;;-142.21;29.39;112049.66;5098307;28;20517;-79
2022/12/18 07:24:46;;;;;;;9.90;8.90;;;24.00;35.80;;;-142.21;29.67;112049.66;5107723;28;20687;-77
2022/12/18 07:27:14;;;;;;;9.33;8.33;;;24.00;35.70;;;-142.21;29.51;112049.66;5092887;28;20211;-82
2022/12/18 07:29:41;;;;;;;8.73;7.83;;;24.10;35.80;;;-142.21;29.27;112049.66;5106698;28;20321;-81
2022/12/18 07:32:08;;;;;;;9.50;8.50;;;24.00;35.70;;;-142.21;29.64;112049.66;5108131;28;20196;-77
2022/12/18 07:34:36;;;;;;;9.57;8.63;;;24.00;35.80;;;-142.21;29.30;112049.66;5093197;28;20212;-82
2022/12/18 07:37:04;;;;;;;8.77;7.87;;;24.00;35.80;;;-142.21;29.65;112049.66;5092496;28;20203;-80
2022/12/18 07:39:31;;;;;;;9.73;8.27;;;24.00;35.80;;;-142.21;29.57;112049.66;5091993;28;20229;-79
2022/12/18 07:44:46;;;;;;;8.83;7.90;;;24.10;35.90;;;-142.21;29.75;112049.66;5111044;28;20214;-77
2022/12/18 07:47:13;;;;;;;9.40;8.50;;;24.10;35.90;;;-142.21;29.52;112049.66;5129270;28;20227;-76
2022/12/18 07:49:43;;;;;;;9.77;8.77;;;24.00;35.90;;;-142.21;29.79;112049.66;5113381;28;20263;-80
2022/12/18 07:52:12;;;;;;;9.50;8.43;;;24.10;36.10;;;-142.21;29.77;112049.66;5111352;28;20299;-79
2022/12/18 07:54:40;;;;;;;8.73;7.40;;;24.10;36.00;;;-142.21;29.78;112049.66;5106905;28;20675;-85
2022/12/18 07:57:09;;;;;;;9.97;8.07;;;24.10;36.20;;;-142.21;29.64;112049.66;5075960;28;20224;-86
2022/12/18 07:59:36;;;;;;;10.17;7.87;;;24.10;36.30;;;-142.21;29.66;112049.66;5093887;28;20258;-82
2022/12/18 08:02:04;;;;;;;9.27;8.13;;;24.00;36.20;;;-142.21;29.78;112049.66;5092921;28;20227;-78
2022/12/18 08:04:31;;;;;;;9.23;8.07;;;24.10;36.30;;;-142.21;29.94;112049.66;5092795;28;20267;-82
2022/12/18 08:06:58;;;;;;;11.53;9.13;;;24.10;36.40;;;-142.21;29.93;112049.66;5092250;28;20717;-76
2022/12/18 08:09:26;;;;;;;9.47;8.47;;;24.10;36.40;;;-142.21;30.00;112049.66;5092145;28;20208;-79
2022/12/18 08:11:53;;;;;;;11.37;9.90;;;24.10;36.40;;;-142.21;29.93;112049.66;5092618;28;20226;-78
2022/12/18 08:14:22;;;;;;;11.43;10.23;;;24.10;36.60;;;-142.21;30.15;112049.66;5091500;28;20212;-75
2022/12/18 08:16:49;;;;;;;20.67;9.50;;;24.10;36.70;;;-142.21;30.09;112049.66;5091922;28;20258;-79
2022/12/18 08:19:16;;;;;;;11.33;8.93;;;24.10;36.80;;;-142.21;30.18;112049.66;5092028;28;20243;-78
2022/12/18 08:21:44;;;;;;;10.93;8.80;;;24.10;36.60;;;-142.21;30.34;112049.66;5091781;28;20696;-80
2022/12/18 08:24:12;;;;;;;9.03;8.07;;;24.10;36.80;;;-142.21;30.31;112049.66;5091892;28;20310;-77
2022/12/18 08:26:39;;;;;;;9.60;8.60;;;24.10;36.80;;;-142.21;30.29;112049.66;5092265;28;20232;-79
2022/12/18 08:29:07;;;;;;;9.30;8.27;;;24.10;36.90;;;-142.21;30.60;112049.66;5095542;28;20204;-79
2022/12/18 08:31:35;;;;;;;9.13;8.17;;;24.10;37.00;;;-142.21;30.48;112049.66;5095328;28;20255;-78
2022/12/18 08:34:03;;;;;;;10.63;8.03;;;24.10;37.00;;;-142.21;30.64;112049.66;5095655;28;20663;-77
2022/12/18 08:36:30;;;;;;;11.57;8.33;;;24.20;37.10;;;-142.21;30.54;112049.66;5094761;28;20631;-78
2022/12/18 08:38:58;;;;;;;10.73;8.50;;;24.20;37.20;;;-142.21;30.49;112049.66;5095359;28;20246;-78
2022/12/18 08:41:25;;;;;;;10.50;8.10;;;24.20;37.30;;;-142.21;30.72;112049.66;5094727;28;20236;-77
2022/12/18 08:46:42;;;;;;;11.30;8.50;;;24.20;37.30;;;-142.21;30.68;112049.66;5095245;28;20196;-78
2022/12/18 08:49:11;;;;;;;10.23;8.73;;;24.20;37.50;;;-142.21;30.71;112049.66;5094795;28;20755;-77
2022/12/18 08:51:39;;;;;;;8.50;7.67;;;24.20;37.50;;;-142.21;30.55;112049.66;5094915;28;20280;-77
2022/12/18 08:54:07;;;;;;;9.43;8.53;;;24.20;37.50;;;-142.21;30.72;112049.66;5095319;28;20239;-78
2022/12/18 08:56:34;;;;;;;10.03;7.23;;;24.20;37.50;;;-142.21;30.65;112049.66;5094459;28;20204;-79
2022/12/18 08:59:02;;;;;;;8.90;7.53;;;24.30;37.50;;;-142.21;30.84;112049.66;5094990;28;20247;-76
2022/12/18 09:01:29;;;;;;;9.97;8.00;;;24.30;37.50;;;-142.21;30.68;112049.66;5095246;28;20204;-78
2022/12/18 09:03:58;;;;;;;28.53;18.13;;;24.30;37.50;;;-142.21;29.70;112049.66;5095278;28;20232;-84
2022/12/18 09:06:26;;;;;;;23.83;16.87;;;24.30;36.40;;;-142.21;30.54;112049.66;5094146;28;20210;-78
2022/12/18 09:08:54;;;;;;;29.80;20.93;;;24.30;37.30;;;-142.21;29.66;112049.66;5095183;28;20214;-81
2022/12/18 09:11:24;;;;;;;26.27;17.57;;;24.20;36.30;;;-142.21;30.59;112049.66;5094536;28;20283;-80
2022/12/18 09:13:53;;;;;;;26.10;17.77;;;24.20;37.10;;;-142.21;30.62;112049.66;5094798;28;20617;-80
2022/12/18 09:16:21;;;;;;;23.93;17.50;;;24.20;37.20;;;-142.21;30.40;112049.66;5094545;28;20265;-80
2022/12/18 09:18:49;;;;;;;30.10;19.80;;;24.20;37.30;;;-142.21;30.81;112049.66;5094815;28;20212;-80
2022/12/18 09:21:21;;;;;;;25.20;17.83;;;24.20;37.30;;;-142.21;30.35;112049.66;5094319;28;20292;-81
2022/12/18 09:23:54;;;;;;;27.77;17.63;;;24.20;37.40;;;-142.21;30.41;112049.66;5095002;28;20254;-80
2022/12/18 09:26:23;;;;;;;22.33;15.77;;;24.30;37.50;;;-142.21;30.69;112049.66;5094593;28;20249;-81
2022/12/18 09:28:50;;;;;;;23.37;15.73;;;24.30;37.40;;;-142.21;30.53;112049.66;5094509;28;20317;-80
2022/12/18 09:31:20;;;;;;;22.40;14.90;;;24.30;37.30;;;-142.21;30.42;112049.66;5094054;28;20277;-82
2022/12/18 09:33:48;;;;;;;20.80;14.30;;;24.30;37.30;;;-142.21;30.70;112049.66;5093849;28;20290;-82
2022/12/18 09:36:19;;;;;;;21.27;14.30;;;24.30;37.30;;;-142.21;30.43;112049.66;5094918;28;20277;-80
2022/12/18 09:38:46;;;;;;;18.30;14.30;;;24.30;37.30;;;-142.21;30.51;112049.66;5095801;28;20200;-81
2022/12/18 09:41:40;;;;;;;19.97;13.40;;;24.40;37.30;;;-142.21;30.19;112049.66;5094509;28;20208;-81
2022/12/18 09:44:21;;;;;;;19.40;13.40;;;24.40;37.30;;;-142.21;30.42;112049.66;5094806;28;20255;-82
2022/12/18 09:47:00;;;;;;;17.47;13.37;;;24.40;37.30;;;-142.21;30.24;112049.66;5094943;28;20287;-81
2022/12/18 09:49:33;;;;;;;15.43;12.57;;;24.30;37.20;;;-142.21;30.22;112049.66;5093819;28;20207;-81
2022/12/18 09:52:20;;;;;;;18.17;13.13;;;24.40;37.30;;;-142.21;28.94;112049.66;5094554;28;20283;-83
2022/12/18 09:54:54;;;;;;;16.07;12.30;;;24.30;36.00;;;-142.21;30.11;112049.66;5095150;28;20543;-82
2022/12/18 09:57:25;;;;;;;28.40;13.40;;;24.20;36.70;;;-142.21;30.51;112049.66;5094131;28;20231;-83
2022/12/18 10:00:00;;;;;;;16.97;12.33;;;24.20;36.90;;;-142.21;30.29;112049.66;5096236;28;20206;-79
2022/12/18 10:02:32;;;;;;;15.47;11.80;;;24.30;37.00;;;-142.21;30.39;112049.66;5093325;28;20188;-79
2022/12/18 10:05:10;;;;;;;15.60;11.80;;;24.30;37.00;;;-142.21;30.58;112049.66;5093735;28;20228;-79
2022/12/18 10:07:53;;;;;;;15.27;12.40;;;24.30;37.10;;;-142.21;30.38;112049.66;5093446;28;20196;-79
2022/12/18 10:10:37;;;;;;;16.43;11.47;;;24.30;37.10;;;-142.21;30.58;112049.66;5093722;28;20192;-82
2022/12/18 10:13:19;;;;;;;13.27;10.73;;;24.30;37.20;;;-142.21;30.12;112049.66;5094165;28;20235;-82
2022/12/18 10:16:09;;;;;;;14.07;11.00;;;24.30;37.20;;;-142.21;30.40;112049.66;5093756;28;20201;-82